sensor_id;sensor_type;location;lat;lon;timestamp;P1;durP1;ratioP1;P2;durP2;ratioP2
45548;SDS011;31270;48.328;10.096;2022-07-29T00:01:34;18.63;;;14.05;;
45548;SDS011;31270;48.328;10.096;2022-07-29T00:04:00;16.73;;;14.70;;
45548;SDS011;31270;48.328;10.096;2022-07-29T00:06:25;16.02;;;14.15;;
45548;SDS011;31270;48.328;10.096;2022-07-29T00:08:51;17.27;;;15.27;;
45548;SDS011;31270;48.328;10.096;2022-07-29T00:11:17;17.15;;;14.13;;
45548;SDS011;31270;48.328;10.096;2022-07-29T00:13:42;16.33;;;14.27;;
45548;SDS011;31270;48.328;10.096;2022-07-29T00:16:08;15.52;;;13.85;;
45548;SDS011;31270;48.328;10.096;2022-07-29T00:18:33;16.33;;;14.38;;
45548;SDS011;31270;48.328;10.096;2022-07-29T00:20:59;17.15;;;14.75;;
45548;SDS011;31270;48.328;10.096;2022-07-29T00:23:24;19.67;;;16.80;;
45548;SDS011;31270;48.328;10.096;2022-07-29T00:25:50;20.88;;;17.55;;
45548;SDS011;31270;48.328;10.096;2022-07-29T00:28:16;21.42;;;18.25;;
45548;SDS011;31270;48.328;10.096;2022-07-29T00:30:41;21.35;;;17.48;;
45548;SDS011;31270;48.328;10.096;2022-07-29T00:33:08;22.13;;;17.83;;
45548;SDS011;31270;48.328;10.096;2022-07-29T00:35:34;19.50;;;17.08;;
45548;SDS011;31270;48.328;10.096;2022-07-29T00:38:09;18.17;;;16.27;;
45548;SDS011;31270;48.328;10.096;2022-07-29T00:40:38;19.65;;;16.20;;
45548;SDS011;31270;48.328;10.096;2022-07-29T00:43:04;16.63;;;14.95;;
45548;SDS011;31270;48.328;10.096;2022-07-29T00:45:30;19.40;;;16.13;;
45548;SDS011;31270;48.328;10.096;2022-07-29T00:47:56;16.98;;;15.15;;
45548;SDS011;31270;48.328;10.096;2022-07-29T00:50:22;16.92;;;15.13;;
45548;SDS011;31270;48.328;10.096;2022-07-29T00:52:48;17.63;;;15.73;;
45548;SDS011;31270;48.328;10.096;2022-07-29T00:55:14;20.58;;;16.15;;
45548;SDS011;31270;48.328;10.096;2022-07-29T00:57:41;18.70;;;16.70;;
45548;SDS011;31270;48.328;10.096;2022-07-29T01:00:10;19.88;;;17.77;;
45548;SDS011;31270;48.328;10.096;2022-07-29T01:02:38;19.23;;;17.20;;
45548;SDS011;31270;48.328;10.096;2022-07-29T01:05:04;19.63;;;17.40;;
45548;SDS011;31270;48.328;10.096;2022-07-29T01:07:31;24.52;;;18.52;;
45548;SDS011;31270;48.328;10.096;2022-07-29T01:10:05;20.38;;;18.17;;
45548;SDS011;31270;48.328;10.096;2022-07-29T01:12:32;19.77;;;17.65;;
45548;SDS011;31270;48.328;10.096;2022-07-29T01:15:01;23.38;;;18.98;;
45548;SDS011;31270;48.328;10.096;2022-07-29T01:17:32;23.10;;;19.33;;
45548;SDS011;31270;48.328;10.096;2022-07-29T01:20:07;23.67;;;18.40;;
45548;SDS011;31270;48.328;10.096;2022-07-29T01:27:38;22.40;;;17.52;;
45548;SDS011;31270;48.328;10.096;2022-07-29T01:30:12;21.48;;;19.17;;
45548;SDS011;31270;48.328;10.096;2022-07-29T01:32:38;21.23;;;18.88;;
45548;SDS011;31270;48.328;10.096;2022-07-29T01:35:06;24.45;;;18.65;;
45548;SDS011;31270;48.328;10.096;2022-07-29T01:37:50;22.90;;;18.90;;
45548;SDS011;31270;48.328;10.096;2022-07-29T01:40:27;22.77;;;19.13;;
45548;SDS011;31270;48.328;10.096;2022-07-29T01:43:03;26.58;;;19.27;;
45548;SDS011;31270;48.328;10.096;2022-07-29T01:45:50;22.52;;;18.85;;
45548;SDS011;31270;48.328;10.096;2022-07-29T01:48:23;22.75;;;19.40;;
45548;SDS011;31270;48.328;10.096;2022-07-29T01:54:01;24.15;;;18.80;;
45548;SDS011;31270;48.328;10.096;2022-07-29T01:56:41;20.48;;;18.27;;
45548;SDS011;31270;48.328;10.096;2022-07-29T01:59:10;18.48;;;16.55;;
45548;SDS011;31270;48.328;10.096;2022-07-29T02:01:36;18.55;;;15.80;;
45548;SDS011;31270;48.328;10.096;2022-07-29T02:04:04;16.63;;;14.90;;
45548;SDS011;31270;48.328;10.096;2022-07-29T02:06:33;18.67;;;14.82;;
45548;SDS011;31270;48.328;10.096;2022-07-29T02:09:02;17.38;;;15.02;;
45548;SDS011;31270;48.328;10.096;2022-07-29T02:11:31;17.60;;;15.02;;
45548;SDS011;31270;48.328;10.096;2022-07-29T02:13:58;16.58;;;14.90;;
45548;SDS011;31270;48.328;10.096;2022-07-29T02:16:26;17.45;;;15.18;;
45548;SDS011;31270;48.328;10.096;2022-07-29T02:18:54;16.58;;;13.40;;
45548;SDS011;31270;48.328;10.096;2022-07-29T02:21:23;18.90;;;14.23;;
45548;SDS011;31270;48.328;10.096;2022-07-29T02:23:51;16.50;;;12.90;;
45548;SDS011;31270;48.328;10.096;2022-07-29T02:26:19;15.13;;;12.13;;
45548;SDS011;31270;48.328;10.096;2022-07-29T02:28:47;17.48;;;13.77;;
45548;SDS011;31270;48.328;10.096;2022-07-29T02:31:14;18.88;;;12.55;;
45548;SDS011;31270;48.328;10.096;2022-07-29T02:33:41;18.60;;;12.75;;
45548;SDS011;31270;48.328;10.096;2022-07-29T02:36:08;16.42;;;13.45;;
45548;SDS011;31270;48.328;10.096;2022-07-29T02:38:35;17.08;;;13.65;;
45548;SDS011;31270;48.328;10.096;2022-07-29T02:43:47;16.88;;;14.88;;
45548;SDS011;31270;48.328;10.096;2022-07-29T02:46:17;19.92;;;16.25;;
45548;SDS011;31270;48.328;10.096;2022-07-29T02:48:49;20.05;;;16.25;;
45548;SDS011;31270;48.328;10.096;2022-07-29T02:51:23;20.60;;;16.05;;
45548;SDS011;31270;48.328;10.096;2022-07-29T02:53:53;17.20;;;15.30;;
45548;SDS011;31270;48.328;10.096;2022-07-29T02:56:23;17.60;;;15.63;;
45548;SDS011;31270;48.328;10.096;2022-07-29T02:58:56;19.88;;;16.20;;
45548;SDS011;31270;48.328;10.096;2022-07-29T03:01:24;18.40;;;15.20;;
45548;SDS011;31270;48.328;10.096;2022-07-29T03:03:53;17.80;;;15.88;;
45548;SDS011;31270;48.328;10.096;2022-07-29T03:06:23;17.23;;;14.80;;
45548;SDS011;31270;48.328;10.096;2022-07-29T03:08:52;18.95;;;15.27;;
45548;SDS011;31270;48.328;10.096;2022-07-29T03:11:18;16.23;;;14.48;;
45548;SDS011;31270;48.328;10.096;2022-07-29T03:13:44;16.25;;;14.60;;
45548;SDS011;31270;48.328;10.096;2022-07-29T03:16:10;16.83;;;14.70;;
45548;SDS011;31270;48.328;10.096;2022-07-29T03:18:37;19.88;;;13.93;;
45548;SDS011;31270;48.328;10.096;2022-07-29T03:21:04;18.27;;;14.52;;
45548;SDS011;31270;48.328;10.096;2022-07-29T03:23:30;15.48;;;13.80;;
45548;SDS011;31270;48.328;10.096;2022-07-29T03:25:56;17.20;;;13.15;;
45548;SDS011;31270;48.328;10.096;2022-07-29T03:28:22;14.75;;;11.63;;
45548;SDS011;31270;48.328;10.096;2022-07-29T03:30:48;19.05;;;13.27;;
45548;SDS011;31270;48.328;10.096;2022-07-29T03:33:14;13.00;;;11.07;;
45548;SDS011;31270;48.328;10.096;2022-07-29T03:35:40;13.02;;;11.63;;
45548;SDS011;31270;48.328;10.096;2022-07-29T03:38:06;11.77;;;10.55;;
45548;SDS011;31270;48.328;10.096;2022-07-29T03:40:36;13.98;;;11.38;;
45548;SDS011;31270;48.328;10.096;2022-07-29T03:43:07;13.95;;;11.02;;
45548;SDS011;31270;48.328;10.096;2022-07-29T03:45:36;13.75;;;10.45;;
45548;SDS011;31270;48.328;10.096;2022-07-29T03:48:08;14.60;;;10.15;;
45548;SDS011;31270;48.328;10.096;2022-07-29T03:50:37;14.73;;;9.55;;
45548;SDS011;31270;48.328;10.096;2022-07-29T03:53:03;12.32;;;10.07;;
45548;SDS011;31270;48.328;10.096;2022-07-29T03:55:29;11.88;;;9.60;;
45548;SDS011;31270;48.328;10.096;2022-07-29T03:58:01;15.30;;;9.20;;
45548;SDS011;31270;48.328;10.096;2022-07-29T04:00:28;15.18;;;9.73;;
45548;SDS011;31270;48.328;10.096;2022-07-29T04:02:55;11.05;;;9.60;;
45548;SDS011;31270;48.328;10.096;2022-07-29T04:05:21;13.45;;;9.63;;
45548;SDS011;31270;48.328;10.096;2022-07-29T04:07:47;14.00;;;9.23;;
45548;SDS011;31270;48.328;10.096;2022-07-29T04:10:13;16.75;;;10.10;;
45548;SDS011;31270;48.328;10.096;2022-07-29T04:12:40;11.52;;;9.20;;
45548;SDS011;31270;48.328;10.096;2022-07-29T04:15:06;13.45;;;10.43;;
45548;SDS011;31270;48.328;10.096;2022-07-29T04:17:32;10.05;;;9.05;;
45548;SDS011;31270;48.328;10.096;2022-07-29T04:19:58;9.68;;;7.82;;
45548;SDS011;31270;48.328;10.096;2022-07-29T04:22:24;11.15;;;8.93;;
45548;SDS011;31270;48.328;10.096;2022-07-29T04:24:49;10.38;;;8.70;;
45548;SDS011;31270;48.328;10.096;2022-07-29T04:27:15;11.35;;;8.00;;
45548;SDS011;31270;48.328;10.096;2022-07-29T04:29:40;11.00;;;9.00;;
45548;SDS011;31270;48.328;10.096;2022-07-29T04:32:06;10.65;;;8.80;;
45548;SDS011;31270;48.328;10.096;2022-07-29T04:34:32;10.85;;;8.85;;
45548;SDS011;31270;48.328;10.096;2022-07-29T04:36:57;10.32;;;8.80;;
45548;SDS011;31270;48.328;10.096;2022-07-29T04:39:23;14.43;;;8.85;;
45548;SDS011;31270;48.328;10.096;2022-07-29T04:41:49;10.38;;;9.02;;
45548;SDS011;31270;48.328;10.096;2022-07-29T04:44:15;10.00;;;9.00;;
45548;SDS011;31270;48.328;10.096;2022-07-29T04:46:41;12.13;;;8.88;;
45548;SDS011;31270;48.328;10.096;2022-07-29T04:49:06;11.38;;;8.50;;
45548;SDS011;31270;48.328;10.096;2022-07-29T04:51:32;10.35;;;8.50;;
45548;SDS011;31270;48.328;10.096;2022-07-29T04:53:58;12.65;;;8.60;;
45548;SDS011;31270;48.328;10.096;2022-07-29T04:56:24;10.70;;;8.23;;
45548;SDS011;31270;48.328;10.096;2022-07-29T04:58:49;9.63;;;7.70;;
45548;SDS011;31270;48.328;10.096;2022-07-29T05:01:15;7.30;;;6.60;;
45548;SDS011;31270;48.328;10.096;2022-07-29T05:03:41;8.20;;;6.82;;
45548;SDS011;31270;48.328;10.096;2022-07-29T05:06:07;6.43;;;5.78;;
45548;SDS011;31270;48.328;10.096;2022-07-29T05:08:32;6.50;;;5.20;;
45548;SDS011;31270;48.328;10.096;2022-07-29T05:10:58;7.75;;;4.95;;
45548;SDS011;31270;48.328;10.096;2022-07-29T05:13:23;8.45;;;5.00;;
45548;SDS011;31270;48.328;10.096;2022-07-29T05:15:49;5.82;;;5.20;;
45548;SDS011;31270;48.328;10.096;2022-07-29T05:18:15;6.53;;;5.18;;
45548;SDS011;31270;48.328;10.096;2022-07-29T05:20:40;5.07;;;4.50;;
45548;SDS011;31270;48.328;10.096;2022-07-29T05:23:06;6.07;;;5.10;;
45548;SDS011;31270;48.328;10.096;2022-07-29T05:25:32;5.70;;;4.65;;
45548;SDS011;31270;48.328;10.096;2022-07-29T05:27:57;9.00;;;4.75;;
45548;SDS011;31270;48.328;10.096;2022-07-29T05:30:23;5.30;;;3.95;;
45548;SDS011;31270;48.328;10.096;2022-07-29T05:32:49;11.25;;;4.72;;
45548;SDS011;31270;48.328;10.096;2022-07-29T05:35:15;12.75;;;4.90;;
45548;SDS011;31270;48.328;10.096;2022-07-29T05:37:41;5.80;;;4.43;;
45548;SDS011;31270;48.328;10.096;2022-07-29T05:40:07;6.15;;;4.57;;
45548;SDS011;31270;48.328;10.096;2022-07-29T05:42:33;4.57;;;4.10;;
45548;SDS011;31270;48.328;10.096;2022-07-29T05:44:59;4.45;;;4.03;;
45548;SDS011;31270;48.328;10.096;2022-07-29T05:47:25;6.80;;;4.70;;
45548;SDS011;31270;48.328;10.096;2022-07-29T05:49:50;5.22;;;4.38;;
45548;SDS011;31270;48.328;10.096;2022-07-29T05:52:16;4.70;;;4.03;;
45548;SDS011;31270;48.328;10.096;2022-07-29T05:54:42;5.50;;;3.90;;
45548;SDS011;31270;48.328;10.096;2022-07-29T05:57:08;8.50;;;3.92;;
45548;SDS011;31270;48.328;10.096;2022-07-29T05:59:39;6.40;;;4.05;;
45548;SDS011;31270;48.328;10.096;2022-07-29T06:02:05;4.45;;;3.70;;
45548;SDS011;31270;48.328;10.096;2022-07-29T06:04:31;7.45;;;3.95;;
45548;SDS011;31270;48.328;10.096;2022-07-29T06:06:58;4.53;;;3.90;;
45548;SDS011;31270;48.328;10.096;2022-07-29T06:09:23;10.20;;;4.07;;
45548;SDS011;31270;48.328;10.096;2022-07-29T06:11:49;6.88;;;3.63;;
45548;SDS011;31270;48.328;10.096;2022-07-29T06:14:15;7.60;;;3.78;;
45548;SDS011;31270;48.328;10.096;2022-07-29T06:16:41;5.22;;;3.30;;
45548;SDS011;31270;48.328;10.096;2022-07-29T06:19:07;4.18;;;3.30;;
45548;SDS011;31270;48.328;10.096;2022-07-29T06:21:33;5.97;;;3.97;;
45548;SDS011;31270;48.328;10.096;2022-07-29T06:23:59;5.35;;;3.50;;
45548;SDS011;31270;48.328;10.096;2022-07-29T06:26:24;9.57;;;3.80;;
45548;SDS011;31270;48.328;10.096;2022-07-29T06:28:50;4.47;;;3.97;;
45548;SDS011;31270;48.328;10.096;2022-07-29T06:31:16;4.90;;;3.97;;
45548;SDS011;31270;48.328;10.096;2022-07-29T06:33:41;5.15;;;3.65;;
45548;SDS011;31270;48.328;10.096;2022-07-29T06:36:07;4.93;;;3.92;;
45548;SDS011;31270;48.328;10.096;2022-07-29T06:38:33;4.93;;;3.75;;
45548;SDS011;31270;48.328;10.096;2022-07-29T06:40:59;5.82;;;4.20;;
45548;SDS011;31270;48.328;10.096;2022-07-29T06:43:40;5.38;;;4.15;;
45548;SDS011;31270;48.328;10.096;2022-07-29T06:46:10;5.57;;;4.15;;
45548;SDS011;31270;48.328;10.096;2022-07-29T06:48:40;5.22;;;3.63;;
45548;SDS011;31270;48.328;10.096;2022-07-29T06:51:07;6.35;;;3.97;;
45548;SDS011;31270;48.328;10.096;2022-07-29T06:53:34;5.80;;;4.10;;
45548;SDS011;31270;48.328;10.096;2022-07-29T06:56:01;7.10;;;3.80;;
45548;SDS011;31270;48.328;10.096;2022-07-29T06:58:28;7.50;;;3.65;;
45548;SDS011;31270;48.328;10.096;2022-07-29T07:00:54;4.18;;;3.78;;
45548;SDS011;31270;48.328;10.096;2022-07-29T07:03:25;6.10;;;4.00;;
45548;SDS011;31270;48.328;10.096;2022-07-29T07:05:51;7.55;;;4.05;;
45548;SDS011;31270;48.328;10.096;2022-07-29T07:08:18;5.88;;;3.75;;
45548;SDS011;31270;48.328;10.096;2022-07-29T07:10:44;4.03;;;3.63;;
45548;SDS011;31270;48.328;10.096;2022-07-29T07:13:10;8.93;;;3.70;;
45548;SDS011;31270;48.328;10.096;2022-07-29T07:15:36;4.13;;;3.72;;
45548;SDS011;31270;48.328;10.096;2022-07-29T07:18:03;6.28;;;3.30;;
45548;SDS011;31270;48.328;10.096;2022-07-29T07:20:29;5.43;;;3.80;;
45548;SDS011;31270;48.328;10.096;2022-07-29T07:22:54;5.57;;;3.78;;
45548;SDS011;31270;48.328;10.096;2022-07-29T07:25:20;6.95;;;4.03;;
45548;SDS011;31270;48.328;10.096;2022-07-29T07:27:46;3.67;;;3.38;;
45548;SDS011;31270;48.328;10.096;2022-07-29T07:30:11;6.45;;;3.78;;
45548;SDS011;31270;48.328;10.096;2022-07-29T07:32:37;5.85;;;3.70;;
45548;SDS011;31270;48.328;10.096;2022-07-29T07:35:04;7.30;;;4.20;;
45548;SDS011;31270;48.328;10.096;2022-07-29T07:37:31;3.85;;;3.38;;
45548;SDS011;31270;48.328;10.096;2022-07-29T07:39:57;4.60;;;3.65;;
45548;SDS011;31270;48.328;10.096;2022-07-29T07:42:23;4.38;;;3.55;;
45548;SDS011;31270;48.328;10.096;2022-07-29T07:44:48;6.28;;;3.33;;
45548;SDS011;31270;48.328;10.096;2022-07-29T07:47:14;5.65;;;3.70;;
45548;SDS011;31270;48.328;10.096;2022-07-29T07:49:44;4.03;;;3.60;;
45548;SDS011;31270;48.328;10.096;2022-07-29T07:52:14;4.72;;;3.20;;
45548;SDS011;31270;48.328;10.096;2022-07-29T07:54:41;6.57;;;2.90;;
45548;SDS011;31270;48.328;10.096;2022-07-29T07:57:07;5.07;;;3.72;;
45548;SDS011;31270;48.328;10.096;2022-07-29T07:59:33;3.88;;;3.25;;
45548;SDS011;31270;48.328;10.096;2022-07-29T08:01:59;7.95;;;3.67;;
45548;SDS011;31270;48.328;10.096;2022-07-29T08:04:25;4.78;;;3.80;;
45548;SDS011;31270;48.328;10.096;2022-07-29T08:06:52;3.47;;;3.17;;
45548;SDS011;31270;48.328;10.096;2022-07-29T08:09:19;5.57;;;3.30;;
45548;SDS011;31270;48.328;10.096;2022-07-29T08:11:45;4.80;;;3.55;;
45548;SDS011;31270;48.328;10.096;2022-07-29T08:14:11;4.07;;;3.20;;
45548;SDS011;31270;48.328;10.096;2022-07-29T08:16:38;4.95;;;3.67;;
45548;SDS011;31270;48.328;10.096;2022-07-29T08:19:05;4.90;;;3.55;;
45548;SDS011;31270;48.328;10.096;2022-07-29T08:21:30;4.32;;;3.30;;
45548;SDS011;31270;48.328;10.096;2022-07-29T08:23:56;7.35;;;3.70;;
45548;SDS011;31270;48.328;10.096;2022-07-29T08:26:42;3.70;;;3.40;;
45548;SDS011;31270;48.328;10.096;2022-07-29T08:29:08;3.95;;;3.58;;
45548;SDS011;31270;48.328;10.096;2022-07-29T08:31:34;4.03;;;3.55;;
45548;SDS011;31270;48.328;10.096;2022-07-29T08:34:02;4.47;;;3.60;;
45548;SDS011;31270;48.328;10.096;2022-07-29T08:36:29;4.18;;;3.28;;
45548;SDS011;31270;48.328;10.096;2022-07-29T08:38:55;5.57;;;3.60;;
45548;SDS011;31270;48.328;10.096;2022-07-29T08:41:21;5.97;;;3.63;;
45548;SDS011;31270;48.328;10.096;2022-07-29T08:43:47;4.63;;;3.75;;
45548;SDS011;31270;48.328;10.096;2022-07-29T08:46:14;6.55;;;3.42;;
45548;SDS011;31270;48.328;10.096;2022-07-29T08:48:40;5.30;;;4.07;;
45548;SDS011;31270;48.328;10.096;2022-07-29T08:51:06;4.63;;;3.83;;
45548;SDS011;31270;48.328;10.096;2022-07-29T08:53:33;4.50;;;3.90;;
45548;SDS011;31270;48.328;10.096;2022-07-29T08:55:59;8.00;;;3.80;;
45548;SDS011;31270;48.328;10.096;2022-07-29T08:58:26;5.13;;;3.78;;
45548;SDS011;31270;48.328;10.096;2022-07-29T09:00:57;7.57;;;4.55;;
45548;SDS011;31270;48.328;10.096;2022-07-29T09:03:29;4.75;;;4.15;;
45548;SDS011;31270;48.328;10.096;2022-07-29T09:05:56;4.80;;;3.63;;
45548;SDS011;31270;48.328;10.096;2022-07-29T09:08:26;4.30;;;3.90;;
45548;SDS011;31270;48.328;10.096;2022-07-29T09:10:53;4.32;;;3.90;;
45548;SDS011;31270;48.328;10.096;2022-07-29T09:13:21;4.45;;;4.05;;
45548;SDS011;31270;48.328;10.096;2022-07-29T09:15:47;6.65;;;4.55;;
45548;SDS011;31270;48.328;10.096;2022-07-29T09:18:32;4.32;;;3.92;;
45548;SDS011;31270;48.328;10.096;2022-07-29T09:21:17;6.43;;;3.88;;
45548;SDS011;31270;48.328;10.096;2022-07-29T09:24:02;8.43;;;4.65;;
45548;SDS011;31270;48.328;10.096;2022-07-29T09:26:35;5.80;;;4.05;;
45548;SDS011;31270;48.328;10.096;2022-07-29T09:29:09;4.32;;;3.92;;
45548;SDS011;31270;48.328;10.096;2022-07-29T09:31:44;5.40;;;3.85;;
45548;SDS011;31270;48.328;10.096;2022-07-29T09:34:15;5.40;;;3.67;;
45548;SDS011;31270;48.328;10.096;2022-07-29T09:36:46;4.43;;;4.03;;
45548;SDS011;31270;48.328;10.096;2022-07-29T09:39:14;3.60;;;3.30;;
45548;SDS011;31270;48.328;10.096;2022-07-29T09:41:47;3.80;;;3.50;;
45548;SDS011;31270;48.328;10.096;2022-07-29T09:44:15;4.57;;;3.63;;
45548;SDS011;31270;48.328;10.096;2022-07-29T09:46:57;4.18;;;3.78;;
45548;SDS011;31270;48.328;10.096;2022-07-29T09:49:31;5.47;;;3.83;;
45548;SDS011;31270;48.328;10.096;2022-07-29T09:54:29;4.20;;;3.83;;
45548;SDS011;31270;48.328;10.096;2022-07-29T09:57:01;5.00;;;3.70;;
45548;SDS011;31270;48.328;10.096;2022-07-29T09:59:29;4.75;;;3.83;;
45548;SDS011;31270;48.328;10.096;2022-07-29T10:01:55;5.03;;;4.00;;
45548;SDS011;31270;48.328;10.096;2022-07-29T10:04:21;4.57;;;4.18;;
45548;SDS011;31270;48.328;10.096;2022-07-29T10:06:57;5.70;;;4.10;;
45548;SDS011;31270;48.328;10.096;2022-07-29T10:09:24;8.95;;;4.50;;
45548;SDS011;31270;48.328;10.096;2022-07-29T10:14:48;4.45;;;3.80;;
45548;SDS011;31270;48.328;10.096;2022-07-29T10:17:14;4.43;;;3.70;;
45548;SDS011;31270;48.328;10.096;2022-07-29T10:19:41;5.85;;;3.80;;
45548;SDS011;31270;48.328;10.096;2022-07-29T10:22:08;5.03;;;3.50;;
45548;SDS011;31270;48.328;10.096;2022-07-29T10:24:35;4.45;;;4.03;;
45548;SDS011;31270;48.328;10.096;2022-07-29T10:27:03;3.72;;;3.40;;
45548;SDS011;31270;48.328;10.096;2022-07-29T10:29:30;4.25;;;3.78;;
45548;SDS011;31270;48.328;10.096;2022-07-29T10:38:10;4.93;;;3.63;;
45548;SDS011;31270;48.328;10.096;2022-07-29T10:43:40;4.40;;;3.33;;
45548;SDS011;31270;48.328;10.096;2022-07-29T10:46:09;4.35;;;4.03;;
45548;SDS011;31270;48.328;10.096;2022-07-29T10:49:03;5.32;;;3.85;;
45548;SDS011;31270;48.328;10.096;2022-07-29T10:52:16;5.55;;;3.75;;
45548;SDS011;31270;48.328;10.096;2022-07-29T10:59:47;3.97;;;3.47;;
45548;SDS011;31270;48.328;10.096;2022-07-29T11:07:28;4.43;;;3.58;;
45548;SDS011;31270;48.328;10.096;2022-07-29T11:15:11;3.88;;;3.45;;
45548;SDS011;31270;48.328;10.096;2022-07-29T11:23:25;6.95;;;3.08;;
45548;SDS011;31270;48.328;10.096;2022-07-29T11:28:36;5.30;;;3.30;;
45548;SDS011;31270;48.328;10.096;2022-07-29T11:31:32;3.65;;;3.35;;
45548;SDS011;31270;48.328;10.096;2022-07-29T11:37:13;3.90;;;3.33;;
45548;SDS011;31270;48.328;10.096;2022-07-29T11:44:56;4.75;;;2.95;;
45548;SDS011;31270;48.328;10.096;2022-07-29T11:47:39;3.58;;;2.75;;
45548;SDS011;31270;48.328;10.096;2022-07-29T11:50:11;4.50;;;3.25;;
45548;SDS011;31270;48.328;10.096;2022-07-29T11:52:46;3.25;;;2.95;;
45548;SDS011;31270;48.328;10.096;2022-07-29T11:55:17;5.05;;;3.17;;
45548;SDS011;31270;48.328;10.096;2022-07-29T11:57:51;3.83;;;2.80;;
45548;SDS011;31270;48.328;10.096;2022-07-29T12:02:49;3.95;;;3.30;;
45548;SDS011;31270;48.328;10.096;2022-07-29T12:05:16;4.47;;;3.10;;
45548;SDS011;31270;48.328;10.096;2022-07-29T12:07:42;4.80;;;2.92;;
45548;SDS011;31270;48.328;10.096;2022-07-29T12:10:08;3.97;;;2.70;;
45548;SDS011;31270;48.328;10.096;2022-07-29T12:18:40;3.42;;;3.13;;
45548;SDS011;31270;48.328;10.096;2022-07-29T12:21:06;4.63;;;3.35;;
45548;SDS011;31270;48.328;10.096;2022-07-29T12:23:33;5.63;;;3.42;;
45548;SDS011;31270;48.328;10.096;2022-07-29T12:25:58;6.30;;;3.33;;
45548;SDS011;31270;48.328;10.096;2022-07-29T12:28:24;5.53;;;3.40;;
45548;SDS011;31270;48.328;10.096;2022-07-29T12:30:51;4.15;;;3.58;;
45548;SDS011;31270;48.328;10.096;2022-07-29T12:33:18;3.92;;;3.60;;
45548;SDS011;31270;48.328;10.096;2022-07-29T12:35:47;3.70;;;3.35;;
45548;SDS011;31270;48.328;10.096;2022-07-29T12:38:21;3.55;;;3.20;;
45548;SDS011;31270;48.328;10.096;2022-07-29T12:40:48;4.20;;;3.30;;
45548;SDS011;31270;48.328;10.096;2022-07-29T12:43:16;3.85;;;3.42;;
45548;SDS011;31270;48.328;10.096;2022-07-29T12:45:52;4.03;;;3.42;;
45548;SDS011;31270;48.328;10.096;2022-07-29T12:48:32;3.97;;;3.30;;
45548;SDS011;31270;48.328;10.096;2022-07-29T12:51:00;3.72;;;2.95;;
45548;SDS011;31270;48.328;10.096;2022-07-29T12:53:26;3.42;;;3.13;;
45548;SDS011;31270;48.328;10.096;2022-07-29T12:55:53;3.67;;;3.38;;
45548;SDS011;31270;48.328;10.096;2022-07-29T13:01:09;3.40;;;2.95;;
45548;SDS011;31270;48.328;10.096;2022-07-29T13:09:08;2.95;;;2.65;;
45548;SDS011;31270;48.328;10.096;2022-07-29T13:11:45;6.28;;;2.95;;
45548;SDS011;31270;48.328;10.096;2022-07-29T13:14:13;6.22;;;2.67;;
45548;SDS011;31270;48.328;10.096;2022-07-29T13:17:01;4.90;;;3.00;;
45548;SDS011;31270;48.328;10.096;2022-07-29T13:19:38;7.40;;;2.80;;
45548;SDS011;31270;48.328;10.096;2022-07-29T13:22:13;3.13;;;2.60;;
45548;SDS011;31270;48.328;10.096;2022-07-29T13:24:47;5.05;;;3.00;;
45548;SDS011;31270;48.328;10.096;2022-07-29T13:27:17;6.95;;;3.10;;
45548;SDS011;31270;48.328;10.096;2022-07-29T13:29:43;6.35;;;2.80;;
45548;SDS011;31270;48.328;10.096;2022-07-29T13:32:09;3.55;;;2.67;;
45548;SDS011;31270;48.328;10.096;2022-07-29T13:34:35;2.80;;;2.55;;
45548;SDS011;31270;48.328;10.096;2022-07-29T13:37:00;2.95;;;2.65;;
45548;SDS011;31270;48.328;10.096;2022-07-29T13:39:26;3.95;;;2.70;;
45548;SDS011;31270;48.328;10.096;2022-07-29T13:41:51;3.03;;;2.42;;
45548;SDS011;31270;48.328;10.096;2022-07-29T13:44:17;3.35;;;2.60;;
45548;SDS011;31270;48.328;10.096;2022-07-29T13:46:43;5.20;;;2.58;;
45548;SDS011;31270;48.328;10.096;2022-07-29T13:49:08;9.25;;;2.85;;
45548;SDS011;31270;48.328;10.096;2022-07-29T13:51:35;2.55;;;2.30;;
45548;SDS011;31270;48.328;10.096;2022-07-29T13:54:01;5.82;;;2.92;;
45548;SDS011;31270;48.328;10.096;2022-07-29T13:56:27;4.85;;;3.10;;
45548;SDS011;31270;48.328;10.096;2022-07-29T13:58:53;4.80;;;2.80;;
45548;SDS011;31270;48.328;10.096;2022-07-29T14:01:18;4.28;;;3.10;;
45548;SDS011;31270;48.328;10.096;2022-07-29T14:03:44;2.58;;;2.38;;
45548;SDS011;31270;48.328;10.096;2022-07-29T14:06:10;3.47;;;2.17;;
45548;SDS011;31270;48.328;10.096;2022-07-29T14:08:35;2.65;;;2.45;;
45548;SDS011;31270;48.328;10.096;2022-07-29T14:11:01;2.15;;;1.85;;
45548;SDS011;31270;48.328;10.096;2022-07-29T14:13:26;4.03;;;2.08;;
45548;SDS011;31270;48.328;10.096;2022-07-29T14:15:52;2.20;;;2.00;;
45548;SDS011;31270;48.328;10.096;2022-07-29T14:18:18;6.05;;;2.03;;
45548;SDS011;31270;48.328;10.096;2022-07-29T14:20:43;3.30;;;1.63;;
45548;SDS011;31270;48.328;10.096;2022-07-29T14:23:09;1.60;;;1.50;;
45548;SDS011;31270;48.328;10.096;2022-07-29T14:25:35;1.52;;;1.42;;
45548;SDS011;31270;48.328;10.096;2022-07-29T14:28:01;2.22;;;1.60;;
45548;SDS011;31270;48.328;10.096;2022-07-29T14:30:26;1.92;;;1.60;;
45548;SDS011;31270;48.328;10.096;2022-07-29T14:32:52;6.07;;;2.55;;
45548;SDS011;31270;48.328;10.096;2022-07-29T14:35:17;11.95;;;3.70;;
45548;SDS011;31270;48.328;10.096;2022-07-29T14:37:43;7.90;;;3.13;;
45548;SDS011;31270;48.328;10.096;2022-07-29T14:40:09;5.03;;;2.78;;
45548;SDS011;31270;48.328;10.096;2022-07-29T14:42:36;5.18;;;3.05;;
45548;SDS011;31270;48.328;10.096;2022-07-29T14:45:03;9.32;;;3.53;;
45548;SDS011;31270;48.328;10.096;2022-07-29T14:47:32;5.82;;;2.78;;
45548;SDS011;31270;48.328;10.096;2022-07-29T14:49:57;6.40;;;3.20;;
45548;SDS011;31270;48.328;10.096;2022-07-29T14:52:24;7.38;;;3.50;;
45548;SDS011;31270;48.328;10.096;2022-07-29T14:54:49;5.07;;;3.10;;
45548;SDS011;31270;48.328;10.096;2022-07-29T14:57:15;7.18;;;3.40;;
45548;SDS011;31270;48.328;10.096;2022-07-29T14:59:41;5.72;;;3.47;;
45548;SDS011;31270;48.328;10.096;2022-07-29T15:02:07;7.30;;;4.22;;
45548;SDS011;31270;48.328;10.096;2022-07-29T15:04:32;8.00;;;4.07;;
45548;SDS011;31270;48.328;10.096;2022-07-29T15:06:58;11.15;;;5.25;;
45548;SDS011;31270;48.328;10.096;2022-07-29T15:09:24;11.88;;;6.55;;
45548;SDS011;31270;48.328;10.096;2022-07-29T15:11:49;9.48;;;5.75;;
45548;SDS011;31270;48.328;10.096;2022-07-29T15:14:15;7.78;;;6.13;;
45548;SDS011;31270;48.328;10.096;2022-07-29T15:16:40;7.75;;;6.38;;
45548;SDS011;31270;48.328;10.096;2022-07-29T15:19:07;10.30;;;6.43;;
45548;SDS011;31270;48.328;10.096;2022-07-29T15:21:33;9.18;;;6.88;;
45548;SDS011;31270;48.328;10.096;2022-07-29T15:23:59;8.50;;;6.25;;
45548;SDS011;31270;48.328;10.096;2022-07-29T15:26:25;10.75;;;6.88;;
45548;SDS011;31270;48.328;10.096;2022-07-29T15:28:51;7.40;;;6.53;;
45548;SDS011;31270;48.328;10.096;2022-07-29T15:31:16;7.60;;;5.95;;
45548;SDS011;31270;48.328;10.096;2022-07-29T15:33:43;6.90;;;6.18;;
45548;SDS011;31270;48.328;10.096;2022-07-29T15:36:09;9.02;;;6.63;;
45548;SDS011;31270;48.328;10.096;2022-07-29T15:38:37;6.60;;;5.90;;
45548;SDS011;31270;48.328;10.096;2022-07-29T15:41:03;9.48;;;6.63;;
45548;SDS011;31270;48.328;10.096;2022-07-29T15:43:28;9.88;;;6.85;;
45548;SDS011;31270;48.328;10.096;2022-07-29T15:45:54;7.97;;;6.95;;